createdAt,value
2023-04-25T00:00:36.386Z,7.70
2023-04-25T00:03:44.120Z,10.90
2023-04-25T00:06:47.225Z,11.70
2023-04-25T00:09:55.842Z,9.70
2023-04-25T00:13:03.693Z,10.00
2023-04-25T00:16:11.290Z,8.70
2023-04-25T00:19:20.014Z,9.90
2023-04-25T00:22:27.845Z,12.40
2023-04-25T00:25:35.428Z,9.80
2023-04-25T00:28:44.541Z,8.60
2023-04-25T00:31:52.345Z,10.90
2023-04-25T00:34:59.878Z,14.70
2023-04-25T00:38:08.893Z,10.60
2023-04-25T00:41:16.385Z,9.10
2023-04-25T00:44:24.248Z,11.10
2023-04-25T00:47:31.869Z,9.40
2023-04-25T00:50:40.959Z,11.80
2023-04-25T00:53:48.876Z,12.70
2023-04-25T00:56:56.481Z,12.10
2023-04-25T01:00:05.453Z,11.10
2023-04-25T01:03:13.667Z,9.60
2023-04-25T01:06:21.020Z,10.80
2023-04-25T01:09:30.021Z,11.00
2023-04-25T01:12:37.926Z,7.60
2023-04-25T01:15:45.123Z,10.20
2023-04-25T01:18:54.438Z,9.90
2023-04-25T01:22:01.955Z,9.00
2023-04-25T01:25:09.498Z,13.50
2023-04-25T01:28:17.514Z,11.90
2023-04-25T01:31:26.401Z,11.30
2023-04-25T01:34:33.940Z,12.40
2023-04-25T01:37:41.482Z,12.90
2023-04-25T01:40:50.869Z,11.10
2023-04-25T01:43:58.399Z,15.00
2023-04-25T01:47:05.854Z,11.90
2023-04-25T01:50:15.227Z,13.90
2023-04-25T01:53:22.410Z,11.40
2023-04-25T01:56:30.535Z,11.80
2023-04-25T01:59:40.067Z,13.80
2023-04-25T02:02:48.064Z,14.20
2023-04-25T02:05:55.614Z,12.40
2023-04-25T02:09:03.252Z,14.90
2023-04-25T02:12:12.144Z,10.50
2023-04-25T02:15:19.673Z,13.90
2023-04-25T02:18:27.170Z,11.10
2023-04-25T02:21:36.706Z,9.90
2023-04-25T02:24:44.134Z,11.70
2023-04-25T02:27:52.070Z,12.10
2023-04-25T02:31:01.285Z,14.80
2023-04-25T02:34:08.493Z,11.00
2023-04-25T02:37:16.345Z,14.50
2023-04-25T02:40:25.559Z,10.90
2023-04-25T02:43:32.799Z,11.20
2023-04-25T02:46:40.694Z,14.20
2023-04-25T02:49:49.703Z,10.70
2023-04-25T02:52:56.938Z,10.20
2023-04-25T02:56:04.901Z,16.40
2023-04-25T02:59:12.464Z,13.30
2023-04-25T03:02:21.817Z,7.90
2023-04-25T03:05:29.831Z,13.00
2023-04-25T03:08:37.365Z,14.30
2023-04-25T03:11:46.394Z,12.50
2023-04-25T03:14:53.480Z,11.90
2023-04-25T03:18:01.408Z,11.40
2023-04-25T03:21:10.763Z,10.40
2023-04-25T03:24:17.913Z,14.90
2023-04-25T03:27:25.711Z,18.10
2023-04-25T03:30:34.754Z,12.30
2023-04-25T03:33:42.352Z,15.90
2023-04-25T03:36:50.162Z,15.50
2023-04-25T03:39:57.825Z,14.30
2023-04-25T03:43:06.642Z,11.30
2023-04-25T03:46:14.563Z,13.10
2023-04-25T03:49:22.995Z,17.80
2023-04-25T03:52:32.115Z,14.60
2023-04-25T03:55:42.316Z,14.40
2023-04-25T03:58:40.865Z,16.90
2023-04-25T04:01:49.803Z,16.30
2023-04-25T04:04:57.673Z,18.90
2023-04-25T04:08:05.707Z,21.20
2023-04-25T04:11:14.371Z,16.10
2023-04-25T04:14:22.109Z,18.40
2023-04-25T04:17:30.101Z,20.20
2023-04-25T04:20:37.298Z,18.50
2023-04-25T04:23:46.740Z,20.10
2023-04-25T04:26:54.175Z,19.00
2023-04-25T04:30:01.534Z,28.10
2023-04-25T04:33:10.419Z,20.60
2023-04-25T04:36:17.809Z,25.00
2023-04-25T04:39:25.214Z,22.30
2023-04-25T04:42:33.777Z,22.00
2023-04-25T04:45:41.608Z,22.20
2023-04-25T04:48:49.497Z,24.20
2023-04-25T04:51:59.638Z,26.60
2023-04-25T04:55:07.483Z,20.90
2023-04-25T04:58:16.492Z,19.70
2023-04-25T05:01:25.401Z,23.30
2023-04-25T05:04:35.113Z,22.60
2023-04-25T05:07:42.572Z,21.60
2023-04-25T05:10:49.821Z,23.00
2023-04-25T05:13:58.432Z,27.30
2023-04-25T05:17:06.138Z,26.10
2023-04-25T05:20:13.751Z,29.30
2023-04-25T05:23:23.284Z,17.70
2023-04-25T05:26:30.742Z,25.60
2023-04-25T05:29:38.396Z,23.70
2023-04-25T05:32:38.087Z,26.00
2023-04-25T05:35:46.276Z,19.80
2023-04-25T05:38:53.769Z,22.40
2023-04-25T05:42:01.084Z,21.20
2023-04-25T05:45:10.268Z,21.20
2023-04-25T05:48:18.683Z,20.50
2023-04-25T05:51:26.024Z,16.50
2023-04-25T05:54:35.737Z,21.40
2023-04-25T05:57:42.976Z,17.10
2023-04-25T06:00:50.380Z,20.50
2023-04-25T06:03:59.937Z,22.40
2023-04-25T06:07:07.975Z,22.40
2023-04-25T06:10:15.198Z,18.70
2023-04-25T06:13:24.416Z,22.10
2023-04-25T06:16:32.451Z,22.70
2023-04-25T06:19:40.171Z,16.20
2023-04-25T06:22:49.467Z,23.10
2023-04-25T06:25:57.022Z,21.70
2023-04-25T06:29:04.302Z,20.70
2023-04-25T06:32:13.143Z,20.00
2023-04-25T06:35:21.993Z,19.70
2023-04-25T06:38:29.459Z,18.30
2023-04-25T06:41:36.902Z,15.80
2023-04-25T06:44:46.098Z,16.50
2023-04-25T06:47:53.490Z,19.20
2023-04-25T06:51:01.607Z,13.90
2023-04-25T06:54:11.433Z,19.50
2023-04-25T06:57:19.443Z,16.70
2023-04-25T07:00:26.973Z,17.70
2023-04-25T07:03:36.503Z,22.70
2023-04-25T07:06:43.882Z,17.70
2023-04-25T07:09:52.032Z,17.00
2023-04-25T07:12:59.996Z,19.00
2023-04-25T07:16:08.584Z,14.30
2023-04-25T07:19:16.719Z,19.00
2023-04-25T07:22:24.736Z,13.40
2023-04-25T07:25:33.373Z,15.20
2023-04-25T07:28:41.144Z,13.00
2023-04-25T07:31:49.163Z,13.10
2023-04-25T07:34:58.096Z,9.70
2023-04-25T07:38:05.674Z,12.80
2023-04-25T07:41:13.293Z,13.80
2023-04-25T07:44:22.414Z,15.80
2023-04-25T07:47:29.693Z,15.60
2023-04-25T07:50:37.306Z,9.60
2023-04-25T07:53:47.549Z,11.80
2023-04-25T07:56:56.034Z,9.80
2023-04-25T08:00:04.130Z,10.50
2023-04-25T08:03:12.281Z,11.80
2023-04-25T08:06:20.975Z,7.20
2023-04-25T08:09:28.977Z,12.60
2023-04-25T08:12:37.269Z,14.80
2023-04-25T08:15:45.868Z,10.30
2023-04-25T08:18:53.915Z,14.10
2023-04-25T08:22:01.722Z,15.70
2023-04-25T08:25:10.249Z,14.30
2023-04-25T08:28:18.130Z,13.80
2023-04-25T08:31:25.320Z,8.10
2023-04-25T08:34:34.085Z,11.40
2023-04-25T08:37:41.977Z,9.20
2023-04-25T08:40:49.673Z,14.60
2023-04-25T08:43:57.492Z,10.60
2023-04-25T08:47:06.878Z,12.40
2023-04-25T08:50:14.497Z,12.10
2023-04-25T08:53:22.789Z,13.60
2023-04-25T08:56:31.694Z,9.50
2023-04-25T08:59:39.408Z,11.90
2023-04-25T09:02:47.190Z,8.40
2023-04-25T09:05:56.117Z,8.40
2023-04-25T09:09:03.737Z,11.20
2023-04-25T09:12:11.797Z,13.40
2023-04-25T09:15:20.957Z,11.40
2023-04-25T09:18:30.554Z,9.80
2023-04-25T09:21:38.631Z,8.20
2023-04-25T09:24:46.088Z,7.80
2023-04-25T09:27:55.473Z,7.70
2023-04-25T09:31:03.261Z,6.80
2023-04-25T09:34:10.957Z,6.30
2023-04-25T09:37:20.368Z,7.50
2023-04-25T09:40:27.966Z,4.40
2023-04-25T09:43:35.965Z,5.00
2023-04-25T09:46:45.184Z,7.80
2023-04-25T09:49:53.037Z,7.00
2023-04-25T09:53:00.800Z,6.60
2023-04-25T09:56:10.095Z,7.80
2023-04-25T09:59:18.110Z,9.20
2023-04-25T10:02:25.845Z,8.50
2023-04-25T10:05:34.982Z,7.50
2023-04-25T10:08:42.965Z,5.90
2023-04-25T10:11:50.649Z,7.10
2023-04-25T10:14:58.730Z,11.10
2023-04-25T10:18:07.736Z,6.50
2023-04-25T10:21:15.029Z,7.70
2023-04-25T10:24:22.643Z,7.00
2023-04-25T10:27:31.894Z,6.70
2023-04-25T10:30:39.314Z,6.20
2023-04-25T10:33:46.850Z,8.30
2023-04-25T10:36:55.834Z,8.10
2023-04-25T10:40:03.122Z,8.60
2023-04-25T10:43:10.840Z,9.50
2023-04-25T10:46:20.097Z,7.00
2023-04-25T10:49:28.501Z,6.40
2023-04-25T10:52:36.227Z,4.00
2023-04-25T10:55:44.116Z,7.40
2023-04-25T10:58:54.084Z,4.30
2023-04-25T11:02:02.246Z,5.40
2023-04-25T11:05:09.888Z,3.10
2023-04-25T11:08:19.182Z,4.10
2023-04-25T11:11:26.660Z,5.50
2023-04-25T11:14:34.443Z,5.70
2023-04-25T11:17:44.453Z,7.40
2023-04-25T11:20:51.821Z,3.90
2023-04-25T11:24:00.165Z,5.50
2023-04-25T11:27:09.038Z,6.40
2023-04-25T11:30:17.257Z,4.60
2023-04-25T11:33:24.945Z,3.40
2023-04-25T11:36:32.595Z,4.30
2023-04-25T11:39:41.884Z,5.20
2023-04-25T11:42:49.796Z,4.20
2023-04-25T11:45:59.115Z,2.90
2023-04-25T11:49:08.780Z,6.40
2023-04-25T11:52:16.635Z,4.90
2023-04-25T11:55:24.718Z,4.00
2023-04-25T11:58:34.414Z,6.80
2023-04-25T12:01:42.078Z,5.00
2023-04-25T12:04:50.847Z,6.10
2023-04-25T12:08:00.405Z,6.50
2023-04-25T12:11:08.736Z,6.00
2023-04-25T12:14:17.229Z,6.20
2023-04-25T12:17:26.292Z,5.00
2023-04-25T12:20:34.742Z,4.60
2023-04-25T12:23:43.631Z,3.20
2023-04-25T12:26:51.665Z,6.70
2023-04-25T12:30:00.937Z,6.10
2023-04-25T12:33:09.471Z,3.30
2023-04-25T12:36:17.308Z,4.60
2023-04-25T12:39:26.973Z,5.50
2023-04-25T12:42:35.490Z,4.20
2023-04-25T12:45:43.859Z,4.30
2023-04-25T12:48:53.509Z,3.40
2023-04-25T12:52:01.427Z,3.50
2023-04-25T12:55:09.750Z,4.50
2023-04-25T12:58:19.113Z,3.90
2023-04-25T13:01:27.262Z,4.60
2023-04-25T13:04:36.161Z,4.60
2023-04-25T13:07:43.842Z,5.00
2023-04-25T13:10:53.688Z,6.10
2023-04-25T13:14:02.001Z,4.40
2023-04-25T13:17:09.946Z,7.70
2023-04-25T13:20:19.468Z,4.60
2023-04-25T13:23:28.804Z,5.40
2023-04-25T13:26:36.975Z,4.10
2023-04-25T13:29:46.818Z,4.00
2023-04-25T13:32:55.452Z,4.50
2023-04-25T13:36:03.273Z,6.50
2023-04-25T13:39:12.976Z,4.80
2023-04-25T13:42:21.295Z,5.90
2023-04-25T13:45:31.517Z,5.10
2023-04-25T13:48:30.235Z,4.30
2023-04-25T13:51:40.453Z,4.40
2023-04-25T13:54:49.595Z,4.00
2023-04-25T13:57:57.530Z,2.40
2023-04-25T14:01:07.001Z,3.90
2023-04-25T14:04:17.455Z,4.80
2023-04-25T14:07:25.659Z,2.30
2023-04-25T14:10:35.154Z,2.80
2023-04-25T14:13:43.574Z,2.20
2023-04-25T14:16:52.022Z,2.30
2023-04-25T14:20:01.658Z,2.90
2023-04-25T14:23:10.133Z,2.00
2023-04-25T14:26:17.777Z,3.60
2023-04-25T14:29:27.497Z,5.00
2023-04-25T14:32:36.002Z,2.60
2023-04-25T14:35:43.742Z,2.40
2023-04-25T14:38:52.207Z,8.10
2023-04-25T14:42:01.864Z,4.30
2023-04-25T14:45:09.747Z,3.70
2023-04-25T14:48:18.303Z,4.70
2023-04-25T14:51:27.669Z,3.20
2023-04-25T14:54:35.830Z,6.90
2023-04-25T14:57:44.062Z,2.60
2023-04-25T15:00:53.824Z,4.20
2023-04-25T15:04:02.184Z,2.80
2023-04-25T15:07:10.762Z,5.00
2023-04-25T15:10:20.132Z,5.00
2023-04-25T15:13:28.086Z,3.90
2023-04-25T15:16:36.667Z,3.40
2023-04-25T15:19:44.554Z,3.60
2023-04-25T15:22:54.137Z,4.10
2023-04-25T15:26:02.147Z,6.60
2023-04-25T15:29:11.113Z,4.10
2023-04-25T15:32:20.839Z,5.10
2023-04-25T15:35:28.546Z,4.40
2023-04-25T15:38:36.817Z,2.70
2023-04-25T15:41:46.573Z,2.00
2023-04-25T15:44:54.335Z,3.90
2023-04-25T15:48:03.095Z,2.80
2023-04-25T15:51:12.338Z,3.50
2023-04-25T15:54:20.409Z,2.60
2023-04-25T15:57:28.992Z,2.50
2023-04-25T16:00:38.287Z,2.90
2023-04-25T16:03:46.900Z,4.30
2023-04-25T16:06:55.540Z,3.30
2023-04-25T16:10:03.957Z,5.00
2023-04-25T16:13:13.477Z,4.10
2023-04-25T16:16:22.141Z,3.80
2023-04-25T16:19:30.371Z,4.10
2023-04-25T16:22:39.950Z,3.90
2023-04-25T16:25:48.243Z,3.30
2023-04-25T16:28:56.953Z,3.10
2023-04-25T16:32:06.521Z,2.40
2023-04-25T16:35:14.619Z,3.10
2023-04-25T16:38:23.064Z,5.20
2023-04-25T16:41:32.504Z,2.80
2023-04-25T16:44:40.373Z,4.00
2023-04-25T16:47:48.703Z,3.30
2023-04-25T16:50:56.943Z,4.70
2023-04-25T16:54:06.542Z,3.30
2023-04-25T16:57:15.022Z,5.30
2023-04-25T17:00:23.037Z,3.70
2023-04-25T17:03:34.021Z,5.30
2023-04-25T17:06:33.572Z,4.50
2023-04-25T17:09:41.325Z,6.30
2023-04-25T17:12:51.152Z,3.80
2023-04-25T17:15:59.866Z,4.90
2023-04-25T17:19:07.732Z,4.50
2023-04-25T17:22:17.250Z,4.30
2023-04-25T17:25:25.604Z,3.90
2023-04-25T17:28:33.408Z,5.20
2023-04-25T17:31:41.708Z,5.50
2023-04-25T17:34:51.200Z,3.90
2023-04-25T17:37:59.639Z,6.00
2023-04-25T17:41:07.762Z,6.40
2023-04-25T17:44:17.276Z,4.70
2023-04-25T17:47:25.728Z,4.50
2023-04-25T17:50:33.687Z,4.30
2023-04-25T17:53:43.226Z,5.00
2023-04-25T17:56:51.631Z,3.20
2023-04-25T17:59:59.754Z,2.80
2023-04-25T18:03:09.034Z,5.80
2023-04-25T18:06:17.764Z,2.60
2023-04-25T18:09:25.728Z,3.40
2023-04-25T18:12:35.092Z,9.60
2023-04-25T18:15:43.604Z,4.20
2023-04-25T18:18:51.665Z,4.30
2023-04-25T18:21:59.681Z,4.70
2023-04-25T18:25:09.391Z,4.90
2023-04-25T18:28:17.544Z,8.50
2023-04-25T18:31:25.644Z,5.40
2023-04-25T18:34:35.410Z,4.90
2023-04-25T18:37:43.310Z,4.80
2023-04-25T18:40:59.197Z,2.90
2023-04-25T18:43:57.892Z,6.60
2023-04-25T18:47:06.107Z,6.00
2023-04-25T18:50:14.024Z,6.00
2023-04-25T18:53:23.473Z,9.70
2023-04-25T18:56:31.916Z,9.40
2023-04-25T18:59:40.190Z,5.70
2023-04-25T19:02:48.472Z,6.60
2023-04-25T19:05:58.151Z,5.50
2023-04-25T19:09:05.700Z,5.30
2023-04-25T19:12:13.550Z,7.40
2023-04-25T19:15:23.318Z,8.20
2023-04-25T19:18:30.902Z,6.20
2023-04-25T19:21:39.291Z,7.00
2023-04-25T19:24:59.048Z,7.90
2023-04-25T19:27:54.049Z,8.20
2023-04-25T19:31:02.401Z,7.60
2023-04-25T19:34:12.673Z,7.60
2023-04-25T19:37:20.405Z,7.90
2023-04-25T19:40:28.301Z,6.40
2023-04-25T19:43:37.491Z,5.30
2023-04-25T19:46:45.945Z,6.20
2023-04-25T19:49:53.995Z,6.10
2023-04-25T19:53:02.039Z,5.20
2023-04-25T19:56:12.060Z,8.00
2023-04-25T19:59:20.206Z,7.50
2023-04-25T20:02:27.845Z,6.20
2023-04-25T20:05:37.731Z,7.40
2023-04-25T20:08:45.253Z,9.70
2023-04-25T20:11:53.586Z,7.10
2023-04-25T20:15:03.417Z,6.80
2023-04-25T20:18:11.225Z,10.00
2023-04-25T20:21:19.642Z,6.40
2023-04-25T20:24:29.630Z,11.00
2023-04-25T20:27:37.262Z,6.20
2023-04-25T20:30:45.796Z,5.50
2023-04-25T20:33:54.064Z,7.10
2023-04-25T20:37:03.071Z,10.60
2023-04-25T20:40:11.599Z,9.00
2023-04-25T20:43:19.549Z,6.70
2023-04-25T20:46:29.271Z,7.60
2023-04-25T20:49:37.260Z,9.70
2023-04-25T20:52:45.135Z,5.50
2023-04-25T20:55:55.554Z,9.20
2023-04-25T20:59:03.235Z,8.60
2023-04-25T21:02:11.171Z,8.20
2023-04-25T21:05:21.251Z,11.30
2023-04-25T21:08:29.476Z,8.00
2023-04-25T21:11:37.454Z,7.60
2023-04-25T21:14:46.902Z,6.50
2023-04-25T21:17:54.510Z,7.70
2023-04-25T21:21:02.811Z,6.50
2023-04-25T21:24:11.293Z,7.50
2023-04-25T21:27:20.532Z,7.70
2023-04-25T21:30:28.841Z,6.70
2023-04-25T21:33:37.134Z,9.00
2023-04-25T21:36:46.323Z,10.40
2023-04-25T21:39:54.826Z,14.70
2023-04-25T21:43:03.472Z,6.50
2023-04-25T21:46:23.111Z,7.20
2023-04-25T21:49:18.194Z,8.50
2023-04-25T21:52:25.999Z,9.80
2023-04-25T21:55:35.547Z,9.70
2023-04-25T21:58:43.560Z,7.90
2023-04-25T22:01:51.431Z,7.70
2023-04-25T22:05:00.026Z,5.80
2023-04-25T22:08:09.395Z,6.30
2023-04-25T22:11:17.141Z,9.10
2023-04-25T22:14:25.449Z,4.40
2023-04-25T22:17:34.516Z,10.00
2023-04-25T22:20:42.961Z,8.10
2023-04-25T22:23:51.316Z,8.30
2023-04-25T22:27:00.529Z,8.60
2023-04-25T22:30:08.974Z,7.50
2023-04-25T22:33:17.320Z,5.30
2023-04-25T22:36:26.340Z,8.10
2023-04-25T22:39:34.599Z,6.50
2023-04-25T22:42:42.868Z,9.30
2023-04-25T22:45:52.006Z,7.10
2023-04-25T22:49:00.538Z,11.40
2023-04-25T22:52:08.366Z,12.50
2023-04-25T22:55:16.388Z,8.00
2023-04-25T22:58:25.831Z,8.10
2023-04-25T23:01:34.276Z,7.00
2023-04-25T23:04:42.664Z,10.90
2023-04-25T23:07:52.254Z,10.60
2023-04-25T23:11:00.491Z,11.50
2023-04-25T23:14:08.733Z,14.10
2023-04-25T23:17:17.737Z,9.10
2023-04-25T23:20:26.078Z,11.80
2023-04-25T23:23:34.396Z,12.30
2023-04-25T23:26:43.423Z,9.30
2023-04-25T23:29:51.854Z,7.60
2023-04-25T23:33:00.680Z,9.20
2023-04-25T23:36:08.279Z,10.50
2023-04-25T23:39:17.921Z,6.90
2023-04-25T23:42:26.571Z,8.70
2023-04-25T23:45:34.257Z,9.90
2023-04-25T23:48:44.021Z,7.30
2023-04-25T23:51:52.080Z,8.60
2023-04-25T23:55:00.153Z,10.40
2023-04-25T23:58:09.676Z,8.20
